Round Spring, Missouri
Current Conditions -  °F | °C
As of 3:53 PM on Tuesday 21 Oct 2014 (Local Time) from KUNO Reporting Station
Clear Clear  
Wind Chill: 73°   Ceiling: Unl
Heat Index: 73°   Visibility: 10mi
Dew Point: 42°   Wind: 3mph
Humidity: 33%   Direction: 330°NNW
Pressure: 30.09"   Gusts: NA
Location:  37.1833°N, 91.4819°W
Report Text: KUNO 212053Z AUTO 33003KT 10SM CLR 23/06 A3009 RMK AO2 SLP184 T02280056 56012
Loading
Personal Weather Stations






























Interactive Weather Map
Tropical Storm Tracking
New forecast layout! Learn more

10-Day Weather Forecast

Advertisements
Track Severe Weather on mobile